Terminal Aerodrome Forecast
Issued by NWS

Home | Current Version | Previous Version | Text Only | Print | Product List | Glossary On
Versions: 1 2 3 4 5 6 7 8 9 10 11 12 13 14 15 16 17 18 19
000
FTUS45 KGJT 162340
TAFTEX
TAF
KTEX 162340Z 1700/1724 28008G16KT P6SM VCSH SCT030 BKN040 OVC060
     FM170200 14006KT P6SM FEW040 BKN100
     FM170900 14004KT P6SM FEW100 SCT200
     FM171400 VRB03KT P6SM SKC
     FM171900 28008KT P6SM FEW250=

USA.gov is the U.S. government's official web portal to all federal, state and local government web resources and services.